Red Wing, Minnesota
Current Conditions -  °F | °C
As of 3:53 PM on Monday 24 Nov 2014 (Local Time) from KSYN Reporting Station
Overcast Overcast  
Wind Chill:   Ceiling: 2100
Heat Index: 20°   Visibility: 10mi
Dew Point: 14°   Wind: 21mph
Humidity: 76%   Direction: 300°WNW
Pressure: 29.61"   Gusts: 24mph
Location:  44.57°N, 92.53°W
Report Text: KSYN 242153Z AUTO 30018G21KT 10SM OVC021 M06/M10 A2961 RMK AO2 T10651101
Loading
Personal Weather Stations






























Interactive Weather Map New forecast layout! Learn more

10-Day Weather Forecast

Advertisements
Track Severe Weather on mobile